Tuesday, October 16, 2018, 7:12 PM EDT
Back to Local

KMUI, Muir Army Air Field / Indiantown

Location: Jonestown, PA, United States Lat: 40.433
Local Time: 7:12 PM EDT (23:12 GMT) Lon: -76.567
Time Zone: US/Eastern Elev: 488 ft

Show me the last for .
Show Decoded

2018-10-16 18:56 METAR KMUI 162256Z AUTO 00000KT 10SM CLR 08/05 A3009 RMK AO2 SLP194 T00760045 $
                 =
2018-10-16 17:56 METAR KMUI 162156Z 25006KT 10SM BKN200 11/02 A3009 RMK AO2A SLP194 T01060022 $ =
2018-10-16 16:56 METAR KMUI 162056Z 23008KT 10SM BKN200 12/02 A3009 RMK AO2A SLP193 T01160018
                 56015 $ =
2018-10-16 15:56 METAR KMUI 161956Z 28007KT 10SM BKN200 12/01 A3009 RMK AO2A SLP193 T01170010 $ =
2018-10-16 14:56 METAR KMUI 161856Z 27004KT 10SM BKN200 12/01 A3011 RMK AO2A SLP200 T01180006 $ =
2018-10-16 13:56 METAR KMUI 161756Z 25009KT 10SM BKN200 BKN250 11/01 A3014 RMK AO2A SLP210
                 T01110005 10113 20074 $ =
2018-10-16 12:56 METAR KMUI 161656Z 25003KT 10SM BKN190 BKN250 11/00 A3017 RMK AO2A SLP220
                 T01100001 $ =
2018-10-16 11:56 METAR KMUI 161556Z 29003KT 10SM FEW150 BKN200 BKN250 10/00 A3019 RMK AO2A SLP227
                 T01040001 $ =
2018-10-16 10:56 METAR KMUI 161456Z AUTO 28007KT 10SM CLR 09/M01 A3020 RMK AO2 SLP230 T00871006
                 58001 $ =
2018-10-16 09:56 METAR KMUI 161356Z 31010G15KT 250V350 10SM SCT180 BKN250 08/M01 A3022 RMK AO2A
                 SLP237 T00811009 $ =
2018-10-16 08:56 METAR KMUI 161256Z 32004KT 10SM FEW180 BKN250 08/00 A3021 RMK AO2A SLP233
                 T00791003 $ =
2018-10-16 07:56 METAR KMUI 161156Z 00000KT 10SM SCT180 BKN250 08/00 A3020 RMK AO2A SLP230 70003
                 T00761001 10123 20073 52021 $ =
2018-10-16 06:56 METAR KMUI 161056Z 27008KT 10SM BKN250 08/M01 A3019 RMK AO2A SLP227 T00821008 $
                 =
2018-10-16 05:56 METAR KMUI 160956Z AUTO 31003KT 10SM CLR 09/00 A3016 RMK AO2 SLP216 T00921001 $
                 =
2018-10-16 04:56 METAR KMUI 160856Z AUTO 32008KT 10SM CLR 10/04 A3014 RMK AO2 SLP210 T01020035
                 53016 $ =
2018-10-16 03:56 METAR KMUI 160756Z AUTO 27008KT 10SM CLR 11/03 A3012 RMK AO2 SLP202 T01100028 $
                 =
2018-10-16 02:56 METAR KMUI 160656Z AUTO 28010KT 10SM CLR 12/03 A3010 RMK AO2 SLP196 T01160026 $
                 =
2018-10-16 01:56 METAR KMUI 160556Z AUTO 29009G20KT 10SM CLR 12/02 A3009 RMK AO2 SLP192 60000
                 T01240023 10177 20124 52030 $ =
2018-10-16 00:56 METAR KMUI 160456Z AUTO 31007G18KT 10SM SCT037 BKN090 14/07 A3007 RMK AO2 SLP185
                 T01370068 401770099 $ =
2018-10-15 23:56 METAR KMUI 160356Z AUTO 27011G23KT 10SM SCT034 BKN080 OVC095 15/08 A3004 RMK AO2
                 PK WND 28027/00 SLP175 T01460076 $ =
2018-10-15 22:56 METAR KMUI 160256Z AUTO 30012G26KT 10SM BKN060 OVC085 15/10 A3000 RMK AO2 PK WND
                 28026/45 SLP161 60000 T01540097 52026 $ =
2018-10-15 21:56 METAR KMUI 160156Z AUTO 30011G26KT 10SM OVC045 16/12 A2997 RMK AO2 PK WND
                 28027/36 RAB0056E0057DZB0057E0058 SLP151 P0000 T01630123 $ =
2018-10-15 20:56 METAR KMUI 160056Z 28009G17KT 250V320 10SM FEW027 OVC033 17/14 A2994 RMK AO2A
                 SLP141 T01710138 $ =
2018-10-15 20:17 METAR KMUI 160017Z 29007KT 10SM BKN015 OVC036 18/16 A2993 RMK AO2A SLP138 $ =
2018-10-15 19:56 METAR KMUI 152356Z 27005KT 10SM FEW011 BKN037 OVC048 16/16 A2992 RMK AO2A SLP135
                 60003 T01640156 10168 20159 55000 $ =

Support USWX by starting your Amazon purchase here.